Terminal Aerodrome Forecast
Issued by NWS

Home | Current Version | Previous Version | Text Only | Print | Product List | Glossary On
Versions: 1 2 3 4 5 6 7 8 9 10 11 12 13 14 15 16 17 18 19 20 21 22 23 24 25 26 27 28 29 30
464
FTUS41 KOKX 121849 AAA
TAFHPN
TAF AMD
KHPN 121849Z 1219/1318 26008KT P6SM VCSH SCT020 BKN030 BKN100
     FM130000 27015G25KT P6SM VCSH SCT025 BKN040 BKN100
     FM130200 30017G27KT P6SM VCSH FEW030 BKN050
     FM130700 29019G31KT P6SM SCT050 BKN100
     FM131300 28022G35KT P6SM BKN050
      AMD NOT SKED=

USA.gov is the U.S. government's official web portal to all federal, state and local government web resources and services.